Meath Environmental Platform

Observations for Trim Patrick St

Time AQI Temp °C Hum % Pres Pa CO μg/m³ H₂S μg/m³ NO μg/m³ NO₂ μg/m³ O₃ μg/m³ SO₂ μg/m³ PM1 μg/m³ PM2.5 μg/m³ PM10 μg/m³
Wednesday 26 August 2026
12:43 2 20 78 38,460 0.09 0 1.79 13.89 35.12 0.43 13.14 17.98 19.77
12:42 2 20 78 38,460 0.1 0 2.08 18.17 26.66 0.39 14 17.99 19.79
12:41 2 20 79 38,460 0.08 0 1.8 15.1 39.24 0.11 11.43 15.82 17.4
12:40 2 20 78 38,460 0.09 0 1.71 14.55 32.46 0.4 11.43 17.28 19.01
12:39 2 20 79 38,460 0.07 0 1.93 11.61 35.32 0.13 13.14 17.97 19.76
12:38 2 20 79 38,460 0.07 0 1.89 11.74 39.34 0 14 18.66 20.52
12:37 2 20 78 38,460 0.06 0 1.83 9.29 39.63 0 14.86 20.11 22.12
12:36 2 20 78 38,460 0.13 0 2.26 12.52 39.47 0 13.14 18.68 20.55
12:35 2 19.9 79 38,460 0.1 0 2.09 15.96 33.5 0 16.57 21.48 23.63
12:34 2 19.9 79 38,460 0.07 0 2.15 24.82 31.46 0 15.71 20.71 22.78
12:32 2 19.9 79 38,460 0.09 0 1.64 13.92 34.63 0 14 20.72 22.79
12:30 2 19.9 80 38,460 0.08 0 1.52 14.94 34.62 0 14.86 19.24 21.17
12:29 2 19.9 80 38,460 0.07 0 1 12.12 34.02 0 12.29 18.56 20.42
12:26 2 19.8 80 38,460 0.11 0 1.83 12.32 41.08 0 15.71 20.63 22.7
12:23 2 19.8 80 38,460 0.13 0 1.46 18.08 19.78 0 14 17.85 19.64
12:22 2 19.8 80 38,460 0.1 0 1.65 11.79 29.38 0.35 12.29 17.84 19.63
12:21 2 19.8 80 38,460 0.11 0 1.71 12.45 36.08 0.06 16.57 20.66 22.72
12:20 2 19.8 81 38,460 0.14 0 2.22 20.18 32.19 0.32 12.29 17.76 19.54
12:19 2 19.8 80 38,460 0.16 0 2.92 21.8 33.64 0.13 13.14 18.5 20.35
12:18 2 19.8 80 38,460 0.15 0 3.14 18.19 24.66 0.93 12.29 17.11 18.82